sensor_id;sensor_type;location;lat;lon;timestamp;P1;durP1;ratioP1;P2;durP2;ratioP2
53151;SDS011;39234;53.158;6.322;2022-10-31T00:02:23;32.78;;;17.73;;
53151;SDS011;39234;53.158;6.322;2022-10-31T00:04:49;42.72;;;17.70;;
53151;SDS011;39234;53.158;6.322;2022-10-31T00:07:14;37.40;;;16.50;;
53151;SDS011;39234;53.158;6.322;2022-10-31T00:09:40;31.38;;;17.15;;
53151;SDS011;39234;53.158;6.322;2022-10-31T00:12:06;33.85;;;18.65;;
53151;SDS011;39234;53.158;6.322;2022-10-31T00:14:31;32.50;;;17.15;;
53151;SDS011;39234;53.158;6.322;2022-10-31T00:16:57;37.33;;;18.25;;
53151;SDS011;39234;53.158;6.322;2022-10-31T00:19:23;30.23;;;16.73;;
53151;SDS011;39234;53.158;6.322;2022-10-31T00:21:50;29.73;;;17.00;;
53151;SDS011;39234;53.158;6.322;2022-10-31T00:24:17;36.10;;;19.15;;
53151;SDS011;39234;53.158;6.322;2022-10-31T00:26:42;35.85;;;17.83;;
53151;SDS011;39234;53.158;6.322;2022-10-31T00:29:08;36.20;;;19.40;;
53151;SDS011;39234;53.158;6.322;2022-10-31T00:31:35;29.95;;;18.95;;
53151;SDS011;39234;53.158;6.322;2022-10-31T00:34:00;38.17;;;18.95;;
53151;SDS011;39234;53.158;6.322;2022-10-31T00:36:28;30.73;;;18.13;;
53151;SDS011;39234;53.158;6.322;2022-10-31T00:38:54;34.65;;;19.08;;
53151;SDS011;39234;53.158;6.322;2022-10-31T00:41:19;41.40;;;21.08;;
53151;SDS011;39234;53.158;6.322;2022-10-31T00:43:45;38.20;;;20.70;;
53151;SDS011;39234;53.158;6.322;2022-10-31T00:46:12;40.55;;;21.27;;
53151;SDS011;39234;53.158;6.322;2022-10-31T00:48:38;40.33;;;22.05;;
53151;SDS011;39234;53.158;6.322;2022-10-31T00:51:04;38.25;;;21.73;;
53151;SDS011;39234;53.158;6.322;2022-10-31T00:53:30;41.45;;;21.75;;
53151;SDS011;39234;53.158;6.322;2022-10-31T00:55:56;35.38;;;22.13;;
53151;SDS011;39234;53.158;6.322;2022-10-31T00:58:21;38.58;;;22.17;;
53151;SDS011;39234;53.158;6.322;2022-10-31T01:00:50;31.88;;;19.88;;
53151;SDS011;39234;53.158;6.322;2022-10-31T01:03:20;32.35;;;19.70;;
53151;SDS011;39234;53.158;6.322;2022-10-31T01:06:07;30.90;;;19.20;;
53151;SDS011;39234;53.158;6.322;2022-10-31T01:08:35;35.97;;;21.92;;
53151;SDS011;39234;53.158;6.322;2022-10-31T01:11:06;38.40;;;22.00;;
53151;SDS011;39234;53.158;6.322;2022-10-31T01:13:35;35.30;;;20.60;;
53151;SDS011;39234;53.158;6.322;2022-10-31T01:16:02;31.40;;;19.90;;
53151;SDS011;39234;53.158;6.322;2022-10-31T01:18:28;38.63;;;19.92;;
53151;SDS011;39234;53.158;6.322;2022-10-31T01:21:02;37.58;;;20.45;;
53151;SDS011;39234;53.158;6.322;2022-10-31T01:23:38;38.33;;;21.15;;
53151;SDS011;39234;53.158;6.322;2022-10-31T01:26:06;36.05;;;20.83;;
53151;SDS011;39234;53.158;6.322;2022-10-31T01:28:34;31.58;;;19.35;;
53151;SDS011;39234;53.158;6.322;2022-10-31T01:31:03;37.45;;;21.20;;
53151;SDS011;39234;53.158;6.322;2022-10-31T01:33:30;45.15;;;22.92;;
53151;SDS011;39234;53.158;6.322;2022-10-31T01:35:56;44.88;;;21.73;;
53151;SDS011;39234;53.158;6.322;2022-10-31T01:38:22;40.15;;;20.88;;
53151;SDS011;39234;53.158;6.322;2022-10-31T01:40:48;37.72;;;21.77;;
53151;SDS011;39234;53.158;6.322;2022-10-31T01:43:14;40.90;;;20.70;;
53151;SDS011;39234;53.158;6.322;2022-10-31T01:45:44;41.40;;;20.23;;
53151;SDS011;39234;53.158;6.322;2022-10-31T01:48:16;38.05;;;20.38;;
53151;SDS011;39234;53.158;6.322;2022-10-31T01:50:48;31.05;;;18.63;;
53151;SDS011;39234;53.158;6.322;2022-10-31T01:53:18;34.92;;;19.40;;
53151;SDS011;39234;53.158;6.322;2022-10-31T01:55:44;30.65;;;17.98;;
53151;SDS011;39234;53.158;6.322;2022-10-31T01:58:16;34.67;;;19.73;;
53151;SDS011;39234;53.158;6.322;2022-10-31T02:00:47;31.27;;;19.08;;
53151;SDS011;39234;53.158;6.322;2022-10-31T02:03:17;42.63;;;22.20;;
53151;SDS011;39234;53.158;6.322;2022-10-31T02:05:44;33.90;;;19.92;;
53151;SDS011;39234;53.158;6.322;2022-10-31T02:08:18;36.70;;;19.40;;
53151;SDS011;39234;53.158;6.322;2022-10-31T02:10:51;31.17;;;19.02;;
53151;SDS011;39234;53.158;6.322;2022-10-31T02:13:17;34.47;;;19.40;;
53151;SDS011;39234;53.158;6.322;2022-10-31T02:15:45;39.38;;;21.55;;
53151;SDS011;39234;53.158;6.322;2022-10-31T02:18:14;31.98;;;19.08;;
53151;SDS011;39234;53.158;6.322;2022-10-31T02:33:59;31.92;;;19.08;;
53151;SDS011;39234;53.158;6.322;2022-10-31T02:36:33;34.88;;;18.52;;
53151;SDS011;39234;53.158;6.322;2022-10-31T02:39:11;36.15;;;20.55;;
53151;SDS011;39234;53.158;6.322;2022-10-31T02:42:47;36.97;;;20.92;;
53151;SDS011;39234;53.158;6.322;2022-10-31T02:44:55;38.05;;;20.08;;
53151;SDS011;39234;53.158;6.322;2022-10-31T02:47:29;35.00;;;20.35;;
53151;SDS011;39234;53.158;6.322;2022-10-31T02:50:06;34.13;;;20.50;;
53151;SDS011;39234;53.158;6.322;2022-10-31T02:52:44;38.70;;;21.00;;
53151;SDS011;39234;53.158;6.322;2022-10-31T02:58:02;32.15;;;18.88;;
53151;SDS011;39234;53.158;6.322;2022-10-31T03:00:35;32.67;;;20.45;;
53151;SDS011;39234;53.158;6.322;2022-10-31T03:05:53;34.50;;;19.83;;
53151;SDS011;39234;53.158;6.322;2022-10-31T03:08:48;33.13;;;18.55;;
53151;SDS011;39234;53.158;6.322;2022-10-31T03:11:22;32.00;;;18.77;;
53151;SDS011;39234;53.158;6.322;2022-10-31T03:16:30;29.00;;;18.85;;
53151;SDS011;39234;53.158;6.322;2022-10-31T03:19:12;26.92;;;16.92;;
53151;SDS011;39234;53.158;6.322;2022-10-31T03:21:52;27.52;;;17.08;;
53151;SDS011;39234;53.158;6.322;2022-10-31T03:24:24;29.58;;;17.25;;
53151;SDS011;39234;53.158;6.322;2022-10-31T03:26:56;30.40;;;17.75;;
53151;SDS011;39234;53.158;6.322;2022-10-31T03:29:25;27.17;;;16.70;;
53151;SDS011;39234;53.158;6.322;2022-10-31T03:31:57;29.05;;;16.70;;
53151;SDS011;39234;53.158;6.322;2022-10-31T03:36:56;29.50;;;17.88;;
53151;SDS011;39234;53.158;6.322;2022-10-31T03:39:24;31.45;;;17.63;;
53151;SDS011;39234;53.158;6.322;2022-10-31T03:42:35;28.20;;;16.35;;
53151;SDS011;39234;53.158;6.322;2022-10-31T03:44:48;28.80;;;17.80;;
53151;SDS011;39234;53.158;6.322;2022-10-31T03:47:40;28.27;;;18.15;;
53151;SDS011;39234;53.158;6.322;2022-10-31T03:50:08;38.42;;;18.35;;
53151;SDS011;39234;53.158;6.322;2022-10-31T03:55:31;31.50;;;17.00;;
53151;SDS011;39234;53.158;6.322;2022-10-31T03:58:15;32.63;;;18.65;;
53151;SDS011;39234;53.158;6.322;2022-10-31T04:00:47;30.15;;;18.38;;
53151;SDS011;39234;53.158;6.322;2022-10-31T04:03:24;33.53;;;19.73;;
53151;SDS011;39234;53.158;6.322;2022-10-31T04:05:53;31.67;;;18.80;;
53151;SDS011;39234;53.158;6.322;2022-10-31T04:08:23;27.70;;;16.80;;
53151;SDS011;39234;53.158;6.322;2022-10-31T04:10:51;32.85;;;19.27;;
53151;SDS011;39234;53.158;6.322;2022-10-31T04:13:20;26.08;;;17.70;;
53151;SDS011;39234;53.158;6.322;2022-10-31T04:15:49;29.85;;;18.80;;
53151;SDS011;39234;53.158;6.322;2022-10-31T04:18:19;27.05;;;17.25;;
53151;SDS011;39234;53.158;6.322;2022-10-31T04:20:46;36.70;;;18.95;;
53151;SDS011;39234;53.158;6.322;2022-10-31T04:23:24;32.83;;;18.05;;
53151;SDS011;39234;53.158;6.322;2022-10-31T04:25:50;30.38;;;17.42;;
53151;SDS011;39234;53.158;6.322;2022-10-31T04:28:16;39.15;;;18.73;;
53151;SDS011;39234;53.158;6.322;2022-10-31T04:30:43;26.85;;;16.70;;
53151;SDS011;39234;53.158;6.322;2022-10-31T04:33:08;32.08;;;17.85;;
53151;SDS011;39234;53.158;6.322;2022-10-31T04:35:34;30.13;;;18.17;;
53151;SDS011;39234;53.158;6.322;2022-10-31T04:38:00;27.98;;;17.95;;
53151;SDS011;39234;53.158;6.322;2022-10-31T04:40:25;26.60;;;16.63;;
53151;SDS011;39234;53.158;6.322;2022-10-31T04:42:51;26.33;;;16.90;;
53151;SDS011;39234;53.158;6.322;2022-10-31T04:45:17;30.35;;;17.45;;
53151;SDS011;39234;53.158;6.322;2022-10-31T04:47:43;27.40;;;17.38;;
53151;SDS011;39234;53.158;6.322;2022-10-31T04:50:08;27.35;;;17.40;;
53151;SDS011;39234;53.158;6.322;2022-10-31T04:52:41;30.23;;;17.73;;
53151;SDS011;39234;53.158;6.322;2022-10-31T04:55:08;29.20;;;17.10;;
53151;SDS011;39234;53.158;6.322;2022-10-31T04:57:44;31.20;;;17.20;;
53151;SDS011;39234;53.158;6.322;2022-10-31T05:00:12;30.20;;;17.33;;
53151;SDS011;39234;53.158;6.322;2022-10-31T05:02:43;30.30;;;18.33;;
53151;SDS011;39234;53.158;6.322;2022-10-31T05:05:10;35.63;;;18.33;;
53151;SDS011;39234;53.158;6.322;2022-10-31T05:07:42;27.98;;;16.92;;
53151;SDS011;39234;53.158;6.322;2022-10-31T05:10:10;26.48;;;15.63;;
53151;SDS011;39234;53.158;6.322;2022-10-31T05:12:37;24.98;;;15.95;;
53151;SDS011;39234;53.158;6.322;2022-10-31T05:15:03;20.13;;;15.07;;
53151;SDS011;39234;53.158;6.322;2022-10-31T05:17:30;20.13;;;14.55;;
53151;SDS011;39234;53.158;6.322;2022-10-31T05:19:56;26.73;;;17.50;;
53151;SDS011;39234;53.158;6.322;2022-10-31T05:22:22;25.83;;;15.45;;
53151;SDS011;39234;53.158;6.322;2022-10-31T05:24:48;28.55;;;17.60;;
53151;SDS011;39234;53.158;6.322;2022-10-31T05:27:13;32.90;;;18.15;;
53151;SDS011;39234;53.158;6.322;2022-10-31T05:29:39;32.45;;;18.83;;
53151;SDS011;39234;53.158;6.322;2022-10-31T05:32:05;37.10;;;19.80;;
53151;SDS011;39234;53.158;6.322;2022-10-31T05:34:30;28.50;;;16.83;;
53151;SDS011;39234;53.158;6.322;2022-10-31T05:36:56;34.88;;;17.48;;
53151;SDS011;39234;53.158;6.322;2022-10-31T05:39:22;29.75;;;16.70;;
53151;SDS011;39234;53.158;6.322;2022-10-31T05:41:48;23.75;;;14.88;;
53151;SDS011;39234;53.158;6.322;2022-10-31T05:44:13;17.90;;;11.32;;
53151;SDS011;39234;53.158;6.322;2022-10-31T05:46:39;19.30;;;9.00;;
53151;SDS011;39234;53.158;6.322;2022-10-31T05:49:05;36.33;;;14.30;;
53151;SDS011;39234;53.158;6.322;2022-10-31T05:51:30;40.10;;;13.00;;
53151;SDS011;39234;53.158;6.322;2022-10-31T05:53:56;25.98;;;14.63;;
53151;SDS011;39234;53.158;6.322;2022-10-31T05:56:22;35.38;;;15.45;;
53151;SDS011;39234;53.158;6.322;2022-10-31T05:58:47;127.75;;;19.52;;
53151;SDS011;39234;53.158;6.322;2022-10-31T06:01:13;55.15;;;16.85;;
53151;SDS011;39234;53.158;6.322;2022-10-31T06:03:39;85.30;;;16.02;;
53151;SDS011;39234;53.158;6.322;2022-10-31T06:06:04;30.20;;;13.43;;
53151;SDS011;39234;53.158;6.322;2022-10-31T06:08:30;26.27;;;14.88;;
53151;SDS011;39234;53.158;6.322;2022-10-31T06:10:56;45.88;;;12.40;;
53151;SDS011;39234;53.158;6.322;2022-10-31T06:13:22;26.48;;;11.95;;
53151;SDS011;39234;53.158;6.322;2022-10-31T06:15:47;16.83;;;8.68;;
53151;SDS011;39234;53.158;6.322;2022-10-31T06:18:13;20.48;;;9.73;;
53151;SDS011;39234;53.158;6.322;2022-10-31T06:20:39;21.17;;;11.60;;
53151;SDS011;39234;53.158;6.322;2022-10-31T06:23:04;71.53;;;11.38;;
53151;SDS011;39234;53.158;6.322;2022-10-31T06:25:31;57.08;;;16.42;;
53151;SDS011;39234;53.158;6.322;2022-10-31T06:27:58;336.42;;;22.10;;
53151;SDS011;39234;53.158;6.322;2022-10-31T06:30:23;183.02;;;19.92;;
53151;SDS011;39234;53.158;6.322;2022-10-31T06:32:50;142.82;;;20.52;;
53151;SDS011;39234;53.158;6.322;2022-10-31T06:35:15;102.15;;;20.33;;
53151;SDS011;39234;53.158;6.322;2022-10-31T06:37:41;72.13;;;18.13;;
53151;SDS011;39234;53.158;6.322;2022-10-31T06:40:07;75.28;;;12.43;;
53151;SDS011;39234;53.158;6.322;2022-10-31T06:42:34;48.15;;;15.70;;
53151;SDS011;39234;53.158;6.322;2022-10-31T06:44:59;18.67;;;12.45;;
53151;SDS011;39234;53.158;6.322;2022-10-31T06:47:25;23.10;;;12.68;;
53151;SDS011;39234;53.158;6.322;2022-10-31T06:49:51;14.75;;;10.63;;
53151;SDS011;39234;53.158;6.322;2022-10-31T06:52:16;23.08;;;10.30;;
53151;SDS011;39234;53.158;6.322;2022-10-31T06:54:42;18.40;;;11.38;;
53151;SDS011;39234;53.158;6.322;2022-10-31T06:57:08;19.48;;;12.40;;
53151;SDS011;39234;53.158;6.322;2022-10-31T06:59:33;18.02;;;11.23;;
53151;SDS011;39234;53.158;6.322;2022-10-31T07:01:59;17.30;;;13.10;;
53151;SDS011;39234;53.158;6.322;2022-10-31T07:04:25;21.60;;;14.40;;
53151;SDS011;39234;53.158;6.322;2022-10-31T07:06:51;20.15;;;14.05;;
53151;SDS011;39234;53.158;6.322;2022-10-31T07:09:17;17.63;;;11.82;;
53151;SDS011;39234;53.158;6.322;2022-10-31T07:11:43;24.02;;;12.23;;
53151;SDS011;39234;53.158;6.322;2022-10-31T07:14:09;15.20;;;11.40;;
53151;SDS011;39234;53.158;6.322;2022-10-31T07:16:35;17.27;;;12.75;;
53151;SDS011;39234;53.158;6.322;2022-10-31T07:19:01;18.52;;;10.65;;
53151;SDS011;39234;53.158;6.322;2022-10-31T07:21:26;20.05;;;15.10;;
53151;SDS011;39234;53.158;6.322;2022-10-31T07:23:52;17.85;;;11.77;;
53151;SDS011;39234;53.158;6.322;2022-10-31T07:26:17;141.10;;;17.00;;
53151;SDS011;39234;53.158;6.322;2022-10-31T07:28:43;21.33;;;12.75;;
53151;SDS011;39234;53.158;6.322;2022-10-31T07:31:12;10.88;;;8.45;;
53151;SDS011;39234;53.158;6.322;2022-10-31T07:33:37;51.92;;;12.80;;
53151;SDS011;39234;53.158;6.322;2022-10-31T07:36:03;64.10;;;10.73;;
53151;SDS011;39234;53.158;6.322;2022-10-31T07:38:29;18.60;;;11.52;;
53151;SDS011;39234;53.158;6.322;2022-10-31T07:40:54;16.67;;;13.48;;
53151;SDS011;39234;53.158;6.322;2022-10-31T07:43:20;26.45;;;18.00;;
53151;SDS011;39234;53.158;6.322;2022-10-31T07:45:53;21.52;;;15.23;;
53151;SDS011;39234;53.158;6.322;2022-10-31T07:50:45;22.05;;;16.60;;
53151;SDS011;39234;53.158;6.322;2022-10-31T07:53:11;26.33;;;16.92;;
53151;SDS011;39234;53.158;6.322;2022-10-31T07:55:38;24.55;;;15.93;;
53151;SDS011;39234;53.158;6.322;2022-10-31T07:58:08;22.92;;;14.82;;
53151;SDS011;39234;53.158;6.322;2022-10-31T08:00:36;18.83;;;13.57;;
53151;SDS011;39234;53.158;6.322;2022-10-31T08:03:07;18.42;;;13.18;;
53151;SDS011;39234;53.158;6.322;2022-10-31T08:05:36;23.10;;;14.45;;
53151;SDS011;39234;53.158;6.322;2022-10-31T08:08:05;18.08;;;14.05;;
53151;SDS011;39234;53.158;6.322;2022-10-31T08:10:31;20.60;;;14.07;;
53151;SDS011;39234;53.158;6.322;2022-10-31T08:13:02;20.23;;;13.73;;
53151;SDS011;39234;53.158;6.322;2022-10-31T08:15:29;18.40;;;15.13;;
53151;SDS011;39234;53.158;6.322;2022-10-31T08:17:55;20.08;;;14.48;;
53151;SDS011;39234;53.158;6.322;2022-10-31T08:20:21;19.17;;;15.27;;
53151;SDS011;39234;53.158;6.322;2022-10-31T08:22:54;20.27;;;14.10;;
53151;SDS011;39234;53.158;6.322;2022-10-31T08:25:21;21.65;;;15.18;;
53151;SDS011;39234;53.158;6.322;2022-10-31T08:27:51;23.38;;;15.77;;
53151;SDS011;39234;53.158;6.322;2022-10-31T08:30:20;22.45;;;14.88;;
53151;SDS011;39234;53.158;6.322;2022-10-31T08:32:47;22.58;;;15.35;;
53151;SDS011;39234;53.158;6.322;2022-10-31T08:35:22;23.60;;;15.98;;
53151;SDS011;39234;53.158;6.322;2022-10-31T08:37:54;21.20;;;14.93;;
53151;SDS011;39234;53.158;6.322;2022-10-31T08:40:21;22.98;;;15.07;;
53151;SDS011;39234;53.158;6.322;2022-10-31T08:42:47;23.67;;;16.40;;
53151;SDS011;39234;53.158;6.322;2022-10-31T08:45:19;24.20;;;15.98;;
53151;SDS011;39234;53.158;6.322;2022-10-31T08:47:45;22.83;;;16.40;;
53151;SDS011;39234;53.158;6.322;2022-10-31T08:50:11;20.55;;;14.85;;
53151;SDS011;39234;53.158;6.322;2022-10-31T08:52:36;17.65;;;14.23;;
53151;SDS011;39234;53.158;6.322;2022-10-31T08:55:02;22.95;;;15.70;;
53151;SDS011;39234;53.158;6.322;2022-10-31T08:57:29;24.13;;;15.55;;
53151;SDS011;39234;53.158;6.322;2022-10-31T08:59:55;17.92;;;14.63;;
53151;SDS011;39234;53.158;6.322;2022-10-31T09:02:21;17.77;;;13.07;;
53151;SDS011;39234;53.158;6.322;2022-10-31T09:04:46;18.67;;;14.07;;
53151;SDS011;39234;53.158;6.322;2022-10-31T09:07:12;18.13;;;13.27;;
53151;SDS011;39234;53.158;6.322;2022-10-31T09:09:38;15.48;;;12.27;;
53151;SDS011;39234;53.158;6.322;2022-10-31T09:12:03;19.10;;;13.07;;
53151;SDS011;39234;53.158;6.322;2022-10-31T09:14:29;16.48;;;13.25;;
53151;SDS011;39234;53.158;6.322;2022-10-31T09:16:55;18.70;;;12.32;;
53151;SDS011;39234;53.158;6.322;2022-10-31T09:19:21;16.48;;;12.48;;
53151;SDS011;39234;53.158;6.322;2022-10-31T09:21:46;16.40;;;12.82;;
53151;SDS011;39234;53.158;6.322;2022-10-31T09:24:12;20.20;;;13.73;;
53151;SDS011;39234;53.158;6.322;2022-10-31T09:26:38;15.00;;;12.20;;
53151;SDS011;39234;53.158;6.322;2022-10-31T09:29:03;18.98;;;12.57;;
53151;SDS011;39234;53.158;6.322;2022-10-31T09:31:29;15.45;;;12.23;;
53151;SDS011;39234;53.158;6.322;2022-10-31T09:33:55;15.35;;;12.82;;
53151;SDS011;39234;53.158;6.322;2022-10-31T09:36:21;16.80;;;12.63;;
53151;SDS011;39234;53.158;6.322;2022-10-31T09:38:46;18.25;;;12.32;;
53151;SDS011;39234;53.158;6.322;2022-10-31T09:46:43;20.83;;;13.50;;
53151;SDS011;39234;53.158;6.322;2022-10-31T09:52:00;16.90;;;11.90;;
53151;SDS011;39234;53.158;6.322;2022-10-31T09:55:27;17.50;;;12.38;;
53151;SDS011;39234;53.158;6.322;2022-10-31T09:57:34;16.35;;;11.57;;
53151;SDS011;39234;53.158;6.322;2022-10-31T10:00:05;16.83;;;12.15;;
53151;SDS011;39234;53.158;6.322;2022-10-31T10:02:39;15.40;;;12.05;;
53151;SDS011;39234;53.158;6.322;2022-10-31T10:05:12;16.88;;;12.15;;
53151;SDS011;39234;53.158;6.322;2022-10-31T10:25:21;14.60;;;10.40;;
53151;SDS011;39234;53.158;6.322;2022-10-31T10:30:33;16.65;;;12.60;;
53151;SDS011;39234;53.158;6.322;2022-10-31T10:33:10;20.85;;;11.63;;
53151;SDS011;39234;53.158;6.322;2022-10-31T10:35:43;16.25;;;11.15;;
53151;SDS011;39234;53.158;6.322;2022-10-31T10:40:52;16.60;;;10.95;;
53151;SDS011;39234;53.158;6.322;2022-10-31T10:43:35;15.63;;;10.82;;
53151;SDS011;39234;53.158;6.322;2022-10-31T10:46:16;16.80;;;11.55;;
53151;SDS011;39234;53.158;6.322;2022-10-31T10:54:29;18.17;;;11.30;;
53151;SDS011;39234;53.158;6.322;2022-10-31T10:59:46;17.80;;;11.20;;
53151;SDS011;39234;53.158;6.322;2022-10-31T11:04:50;16.70;;;10.07;;
53151;SDS011;39234;53.158;6.322;2022-10-31T11:07:21;17.92;;;10.35;;
53151;SDS011;39234;53.158;6.322;2022-10-31T11:09:47;14.82;;;9.98;;
53151;SDS011;39234;53.158;6.322;2022-10-31T11:14:53;16.60;;;9.18;;
53151;SDS011;39234;53.158;6.322;2022-10-31T11:17:30;16.77;;;9.50;;
53151;SDS011;39234;53.158;6.322;2022-10-31T11:20:06;17.38;;;9.35;;
53151;SDS011;39234;53.158;6.322;2022-10-31T11:22:46;16.45;;;9.63;;
53151;SDS011;39234;53.158;6.322;2022-10-31T11:27:45;16.73;;;10.10;;
53151;SDS011;39234;53.158;6.322;2022-10-31T11:30:12;16.23;;;9.35;;
53151;SDS011;39234;53.158;6.322;2022-10-31T11:32:43;15.80;;;9.27;;
53151;SDS011;39234;53.158;6.322;2022-10-31T11:35:14;20.17;;;9.10;;
53151;SDS011;39234;53.158;6.322;2022-10-31T11:37:44;16.58;;;9.20;;
53151;SDS011;39234;53.158;6.322;2022-10-31T11:40:15;20.17;;;9.82;;
53151;SDS011;39234;53.158;6.322;2022-10-31T11:42:42;16.38;;;9.48;;
53151;SDS011;39234;53.158;6.322;2022-10-31T11:45:14;18.50;;;9.85;;
53151;SDS011;39234;53.158;6.322;2022-10-31T11:47:43;16.48;;;8.90;;
53151;SDS011;39234;53.158;6.322;2022-10-31T11:50:18;17.38;;;9.77;;
53151;SDS011;39234;53.158;6.322;2022-10-31T11:52:45;13.18;;;8.88;;
53151;SDS011;39234;53.158;6.322;2022-10-31T11:57:44;17.92;;;9.40;;
53151;SDS011;39234;53.158;6.322;2022-10-31T12:00:22;12.68;;;8.02;;
53151;SDS011;39234;53.158;6.322;2022-10-31T12:02:51;14.00;;;8.80;;
53151;SDS011;39234;53.158;6.322;2022-10-31T12:05:35;11.73;;;7.70;;
53151;SDS011;39234;53.158;6.322;2022-10-31T12:08:03;14.88;;;7.78;;
53151;SDS011;39234;53.158;6.322;2022-10-31T12:10:31;14.85;;;7.75;;
53151;SDS011;39234;53.158;6.322;2022-10-31T12:16:20;10.65;;;6.45;;
53151;SDS011;39234;53.158;6.322;2022-10-31T12:21:34;8.70;;;5.60;;
53151;SDS011;39234;53.158;6.322;2022-10-31T12:24:24;10.93;;;5.72;;
53151;SDS011;39234;53.158;6.322;2022-10-31T12:43:45;9.40;;;4.68;;
53151;SDS011;39234;53.158;6.322;2022-10-31T12:57:10;11.85;;;4.35;;
53151;SDS011;39234;53.158;6.322;2022-10-31T12:59:48;12.77;;;3.97;;
53151;SDS011;39234;53.158;6.322;2022-10-31T13:03:01;10.30;;;3.88;;
53151;SDS011;39234;53.158;6.322;2022-10-31T13:05:29;10.32;;;4.10;;
53151;SDS011;39234;53.158;6.322;2022-10-31T13:08:11;10.48;;;4.40;;
53151;SDS011;39234;53.158;6.322;2022-10-31T13:16:24;14.90;;;4.88;;
53151;SDS011;39234;53.158;6.322;2022-10-31T13:19:00;11.88;;;4.93;;
53151;SDS011;39234;53.158;6.322;2022-10-31T13:24:17;9.00;;;4.38;;
53151;SDS011;39234;53.158;6.322;2022-10-31T13:26:48;10.60;;;4.70;;
53151;SDS011;39234;53.158;6.322;2022-10-31T13:32:05;8.30;;;3.83;;
53151;SDS011;39234;53.158;6.322;2022-10-31T13:34:33;9.40;;;3.40;;
53151;SDS011;39234;53.158;6.322;2022-10-31T13:37:12;12.60;;;3.80;;
53151;SDS011;39234;53.158;6.322;2022-10-31T13:43:25;10.98;;;2.72;;
53151;SDS011;39234;53.158;6.322;2022-10-31T13:45:55;11.18;;;3.47;;
53151;SDS011;39234;53.158;6.322;2022-10-31T13:50:57;11.68;;;3.13;;
53151;SDS011;39234;53.158;6.322;2022-10-31T13:54:19;8.07;;;2.47;;
53151;SDS011;39234;53.158;6.322;2022-10-31T13:56:24;10.45;;;2.88;;
53151;SDS011;39234;53.158;6.322;2022-10-31T14:01:31;8.98;;;2.80;;
53151;SDS011;39234;53.158;6.322;2022-10-31T14:04:07;8.80;;;2.45;;
53151;SDS011;39234;53.158;6.322;2022-10-31T14:06:51;9.60;;;3.00;;
53151;SDS011;39234;53.158;6.322;2022-10-31T14:09:19;10.48;;;2.58;;
53151;SDS011;39234;53.158;6.322;2022-10-31T14:11:48;8.30;;;2.60;;
53151;SDS011;39234;53.158;6.322;2022-10-31T14:14:16;9.63;;;2.60;;
53151;SDS011;39234;53.158;6.322;2022-10-31T14:16:43;11.63;;;2.42;;
53151;SDS011;39234;53.158;6.322;2022-10-31T14:19:17;9.88;;;2.47;;
53151;SDS011;39234;53.158;6.322;2022-10-31T14:21:45;11.02;;;2.90;;
53151;SDS011;39234;53.158;6.322;2022-10-31T14:26:50;12.77;;;2.85;;
53151;SDS011;39234;53.158;6.322;2022-10-31T14:29:48;11.30;;;2.50;;
53151;SDS011;39234;53.158;6.322;2022-10-31T14:32:19;14.95;;;2.70;;
53151;SDS011;39234;53.158;6.322;2022-10-31T14:34:52;8.90;;;2.72;;
53151;SDS011;39234;53.158;6.322;2022-10-31T14:40:18;10.50;;;3.15;;
53151;SDS011;39234;53.158;6.322;2022-10-31T14:43:16;11.52;;;3.22;;
53151;SDS011;39234;53.158;6.322;2022-10-31T14:51:22;14.25;;;3.58;;
53151;SDS011;39234;53.158;6.322;2022-10-31T14:53:52;10.23;;;3.92;;
53151;SDS011;39234;53.158;6.322;2022-10-31T14:56:21;12.73;;;3.72;;
53151;SDS011;39234;53.158;6.322;2022-10-31T14:58:52;12.30;;;3.90;;
53151;SDS011;39234;53.158;6.322;2022-10-31T15:01:25;10.50;;;3.90;;
53151;SDS011;39234;53.158;6.322;2022-10-31T15:04:16;11.77;;;4.30;;
53151;SDS011;39234;53.158;6.322;2022-10-31T15:06:49;10.00;;;3.95;;
53151;SDS011;39234;53.158;6.322;2022-10-31T15:09:57;14.10;;;5.03;;
53151;SDS011;39234;53.158;6.322;2022-10-31T15:12:29;10.90;;;4.32;;
53151;SDS011;39234;53.158;6.322;2022-10-31T15:15:17;13.32;;;4.20;;
53151;SDS011;39234;53.158;6.322;2022-10-31T15:17:48;15.35;;;4.82;;
53151;SDS011;39234;53.158;6.322;2022-10-31T15:20:24;12.48;;;5.00;;
53151;SDS011;39234;53.158;6.322;2022-10-31T15:22:53;15.15;;;5.13;;
53151;SDS011;39234;53.158;6.322;2022-10-31T15:25:22;12.75;;;5.13;;
53151;SDS011;39234;53.158;6.322;2022-10-31T15:27:49;13.00;;;5.72;;
53151;SDS011;39234;53.158;6.322;2022-10-31T15:30:20;18.10;;;6.22;;
53151;SDS011;39234;53.158;6.322;2022-10-31T15:32:50;14.40;;;6.03;;
53151;SDS011;39234;53.158;6.322;2022-10-31T15:35:26;16.98;;;6.47;;
53151;SDS011;39234;53.158;6.322;2022-10-31T15:37:54;13.23;;;5.78;;
53151;SDS011;39234;53.158;6.322;2022-10-31T15:40:22;13.70;;;7.13;;
53151;SDS011;39234;53.158;6.322;2022-10-31T15:43:03;16.20;;;6.72;;
53151;SDS011;39234;53.158;6.322;2022-10-31T15:45:31;16.73;;;6.32;;
53151;SDS011;39234;53.158;6.322;2022-10-31T15:48:01;17.73;;;5.88;;
53151;SDS011;39234;53.158;6.322;2022-10-31T15:53:06;11.45;;;5.95;;
53151;SDS011;39234;53.158;6.322;2022-10-31T15:55:51;16.50;;;6.00;;
53151;SDS011;39234;53.158;6.322;2022-10-31T15:58:20;16.65;;;6.78;;
53151;SDS011;39234;53.158;6.322;2022-10-31T16:00:56;17.88;;;6.35;;
53151;SDS011;39234;53.158;6.322;2022-10-31T16:03:28;19.55;;;6.75;;
53151;SDS011;39234;53.158;6.322;2022-10-31T16:05:57;15.87;;;6.30;;
53151;SDS011;39234;53.158;6.322;2022-10-31T16:11:00;18.00;;;7.32;;
53151;SDS011;39234;53.158;6.322;2022-10-31T16:13:38;21.63;;;7.75;;
53151;SDS011;39234;53.158;6.322;2022-10-31T16:16:14;15.57;;;7.95;;
53151;SDS011;39234;53.158;6.322;2022-10-31T16:18:41;22.02;;;7.93;;
53151;SDS011;39234;53.158;6.322;2022-10-31T16:21:08;14.23;;;7.55;;
53151;SDS011;39234;53.158;6.322;2022-10-31T16:23:34;17.08;;;8.55;;
53151;SDS011;39234;53.158;6.322;2022-10-31T16:26:06;15.13;;;7.60;;
53151;SDS011;39234;53.158;6.322;2022-10-31T16:28:33;18.55;;;8.57;;
53151;SDS011;39234;53.158;6.322;2022-10-31T16:31:00;14.10;;;7.25;;
53151;SDS011;39234;53.158;6.322;2022-10-31T16:33:27;15.50;;;6.75;;
53151;SDS011;39234;53.158;6.322;2022-10-31T16:35:54;17.13;;;7.22;;
53151;SDS011;39234;53.158;6.322;2022-10-31T16:38:20;16.73;;;7.35;;
53151;SDS011;39234;53.158;6.322;2022-10-31T16:40:46;21.67;;;8.15;;
53151;SDS011;39234;53.158;6.322;2022-10-31T16:43:14;18.40;;;7.28;;
53151;SDS011;39234;53.158;6.322;2022-10-31T16:45:45;15.10;;;7.50;;
53151;SDS011;39234;53.158;6.322;2022-10-31T16:48:16;16.00;;;7.17;;
53151;SDS011;39234;53.158;6.322;2022-10-31T16:50:46;17.30;;;6.72;;
53151;SDS011;39234;53.158;6.322;2022-10-31T16:53:13;13.88;;;7.10;;
53151;SDS011;39234;53.158;6.322;2022-10-31T16:55:44;13.93;;;6.45;;
53151;SDS011;39234;53.158;6.322;2022-10-31T16:58:19;14.40;;;7.25;;
53151;SDS011;39234;53.158;6.322;2022-10-31T17:00:48;12.55;;;6.55;;
53151;SDS011;39234;53.158;6.322;2022-10-31T17:03:14;14.02;;;7.40;;
53151;SDS011;39234;53.158;6.322;2022-10-31T17:05:40;15.05;;;7.43;;
53151;SDS011;39234;53.158;6.322;2022-10-31T17:08:05;11.32;;;6.85;;
53151;SDS011;39234;53.158;6.322;2022-10-31T17:10:31;18.60;;;8.57;;
53151;SDS011;39234;53.158;6.322;2022-10-31T17:12:57;15.70;;;7.88;;